createdAt,value
2023-04-13T00:01:59.632Z,5.47
2023-04-13T00:04:45.125Z,4.63
2023-04-13T00:07:30.240Z,1.90
2023-04-13T00:10:21.812Z,4.35
2023-04-13T00:13:09.757Z,1.52
2023-04-13T00:15:56.212Z,4.85
2023-04-13T00:18:41.392Z,4.88
2023-04-13T00:21:28.120Z,3.65
2023-04-13T00:24:16.903Z,2.60
2023-04-13T00:27:02.938Z,2.42
2023-04-13T00:29:51.902Z,2.78
2023-04-13T00:32:39.000Z,2.13
2023-04-13T00:35:27.931Z,0.90
2023-04-13T00:38:13.779Z,3.58
2023-04-13T00:40:59.209Z,1.75
2023-04-13T00:43:44.927Z,3.55
2023-04-13T00:46:31.620Z,3.95
2023-04-13T00:49:18.587Z,4.28
2023-04-13T00:52:04.899Z,1.50
2023-04-13T00:54:56.696Z,2.25
2023-04-13T00:57:42.363Z,1.13
2023-04-13T01:00:30.822Z,3.63
2023-04-13T01:03:16.185Z,1.60
2023-04-13T01:06:45.503Z,3.30
2023-04-13T01:09:38.172Z,5.03
2023-04-13T01:12:31.566Z,2.75
2023-04-13T01:15:19.836Z,4.05
2023-04-13T01:18:09.904Z,4.55
2023-04-13T01:20:56.423Z,6.43
2023-04-13T01:23:51.072Z,5.20
2023-04-13T01:26:53.277Z,4.70
2023-04-13T01:29:39.634Z,7.75
2023-04-13T01:32:27.259Z,10.43
2023-04-13T01:35:13.331Z,3.40
2023-04-13T01:37:59.788Z,10.20
2023-04-13T01:40:47.756Z,8.60
2023-04-13T01:43:36.452Z,6.15
2023-04-13T01:46:28.836Z,12.57
2023-04-13T01:49:23.256Z,5.43
2023-04-13T01:52:22.390Z,9.50
2023-04-13T01:55:09.069Z,10.02
2023-04-13T01:57:57.991Z,6.38
2023-04-13T02:00:43.593Z,10.65
2023-04-13T02:03:31.257Z,6.90
2023-04-13T02:06:17.227Z,8.75
2023-04-13T02:09:06.503Z,10.60
2023-04-13T02:11:52.153Z,10.45
2023-04-13T02:14:38.770Z,5.50
2023-04-13T02:17:25.667Z,9.65
2023-04-13T02:20:12.335Z,9.93
2023-04-13T02:22:57.920Z,8.85
2023-04-13T02:25:44.890Z,15.30
2023-04-13T02:28:35.188Z,14.10
2023-04-13T02:31:23.473Z,17.38
2023-04-13T02:34:10.142Z,9.68
2023-04-13T02:36:56.130Z,7.88
2023-04-13T02:39:41.909Z,14.02
2023-04-13T02:42:28.007Z,12.43
2023-04-13T02:45:17.865Z,6.20
2023-04-13T02:48:09.657Z,9.18
2023-04-13T02:50:56.005Z,9.95
2023-04-13T02:53:45.877Z,15.45
2023-04-13T02:56:31.209Z,7.22
2023-04-13T02:59:18.029Z,9.80
2023-04-13T03:02:03.664Z,10.07
2023-04-13T03:04:51.206Z,15.05
2023-04-13T03:07:37.196Z,9.27
2023-04-13T03:10:23.205Z,8.63
2023-04-13T03:13:09.240Z,12.18
2023-04-13T03:15:55.615Z,21.77
2023-04-13T03:18:45.369Z,21.60
2023-04-13T03:21:37.455Z,8.25
2023-04-13T03:24:28.876Z,13.80
2023-04-13T03:27:21.225Z,10.93
2023-04-13T03:30:08.978Z,10.57
2023-04-13T03:33:04.334Z,7.15
2023-04-13T03:35:53.909Z,13.15
2023-04-13T03:38:48.634Z,6.88
2023-04-13T03:41:37.191Z,13.15
2023-04-13T03:44:22.890Z,13.35
2023-04-13T03:47:09.731Z,10.65
2023-04-13T03:49:55.978Z,11.05
2023-04-13T03:52:41.344Z,9.27
2023-04-13T03:55:27.589Z,13.40
2023-04-13T03:58:15.699Z,18.42
2023-04-13T04:01:07.029Z,9.50
2023-04-13T04:04:01.393Z,13.75
2023-04-13T04:06:48.471Z,12.52
2023-04-13T04:09:35.970Z,9.68
2023-04-13T04:12:21.501Z,13.95
2023-04-13T04:15:13.981Z,10.50
2023-04-13T04:18:01.754Z,12.23
2023-04-13T04:20:47.370Z,9.10
2023-04-13T04:23:34.696Z,15.00
2023-04-13T04:26:25.740Z,7.82
2023-04-13T04:29:22.729Z,7.65
2023-04-13T04:32:14.644Z,10.70
2023-04-13T04:35:00.661Z,9.48
2023-04-13T04:37:49.832Z,7.07
2023-04-13T04:40:36.968Z,16.73
2023-04-13T04:43:27.136Z,12.00
2023-04-13T04:46:21.163Z,9.48
2023-04-13T04:49:11.178Z,7.47
2023-04-13T04:51:58.444Z,8.73
2023-04-13T04:54:43.822Z,13.18
2023-04-13T04:57:29.982Z,18.60
2023-04-13T05:00:19.038Z,9.32
2023-04-13T05:03:15.739Z,13.27
2023-04-13T05:06:06.364Z,12.05
2023-04-13T05:08:57.091Z,11.10
2023-04-13T05:11:44.364Z,7.28
2023-04-13T05:14:30.734Z,7.43
2023-04-13T05:17:19.200Z,12.38
2023-04-13T05:20:07.090Z,7.65
2023-04-13T05:23:03.090Z,7.15
2023-04-13T05:25:49.030Z,9.00
2023-04-13T05:28:39.830Z,11.65
2023-04-13T05:31:25.591Z,11.73
2023-04-13T05:34:11.757Z,7.82
2023-04-13T05:36:58.664Z,9.55
2023-04-13T05:39:45.208Z,5.63
2023-04-13T05:42:33.410Z,5.65
2023-04-13T05:45:21.465Z,11.63
2023-04-13T05:48:20.070Z,10.10
2023-04-13T05:51:07.617Z,10.05
2023-04-13T05:53:53.888Z,9.98
2023-04-13T05:56:39.533Z,12.63
2023-04-13T05:59:25.238Z,19.73
2023-04-13T06:02:11.278Z,11.00
2023-04-13T06:04:56.834Z,19.52
2023-04-13T06:07:46.621Z,16.27
2023-04-13T06:10:31.799Z,10.60
2023-04-13T06:13:17.405Z,13.65
2023-04-13T06:16:05.880Z,12.35
2023-04-13T06:18:51.154Z,10.82
2023-04-13T06:21:37.245Z,18.35
2023-04-13T06:24:22.870Z,23.70
2023-04-13T06:27:08.900Z,17.27
2023-04-13T06:29:56.042Z,17.38
2023-04-13T06:32:41.937Z,27.92
2023-04-13T06:35:29.934Z,22.10
2023-04-13T06:38:15.725Z,19.85
2023-04-13T06:41:21.507Z,24.30
2023-04-13T06:44:08.741Z,21.50
2023-04-13T06:49:49.596Z,20.48
2023-04-13T06:52:35.971Z,28.67
2023-04-13T06:55:22.222Z,19.63
2023-04-13T06:58:10.125Z,31.15
2023-04-13T07:00:59.038Z,26.00
2023-04-13T07:03:47.659Z,27.73
2023-04-13T07:06:35.421Z,30.85
2023-04-13T07:09:20.801Z,17.45
2023-04-13T07:12:09.776Z,25.30
2023-04-13T07:14:55.882Z,26.23
2023-04-13T07:17:45.699Z,22.30
2023-04-13T07:20:31.065Z,29.48
2023-04-13T07:23:16.606Z,22.35
2023-04-13T07:26:02.925Z,25.33
2023-04-13T07:28:52.240Z,25.65
2023-04-13T07:31:40.173Z,21.15
2023-04-13T07:34:26.455Z,25.80
2023-04-13T07:37:13.199Z,25.23
2023-04-13T07:40:00.462Z,23.13
2023-04-13T07:42:50.719Z,14.45
2023-04-13T07:45:37.141Z,16.77
2023-04-13T07:48:23.497Z,21.17
2023-04-13T07:51:20.057Z,18.88
2023-04-13T07:54:07.252Z,20.02
2023-04-13T07:56:56.620Z,23.55
2023-04-13T07:59:45.355Z,23.70
2023-04-13T08:02:32.581Z,20.20
2023-04-13T08:05:18.582Z,19.38
2023-04-13T08:08:04.297Z,22.63
2023-04-13T08:10:53.497Z,20.13
2023-04-13T08:13:38.613Z,18.88
2023-04-13T08:16:24.111Z,17.95
2023-04-13T08:19:10.036Z,22.42
2023-04-13T08:22:00.986Z,19.33
2023-04-13T08:24:52.692Z,19.05
2023-04-13T08:27:38.317Z,16.08
2023-04-13T08:30:23.842Z,18.50
2023-04-13T08:33:22.709Z,18.77
2023-04-13T08:36:08.842Z,23.10
2023-04-13T08:38:54.984Z,14.88
2023-04-13T08:41:46.185Z,19.75
2023-04-13T08:44:34.040Z,18.90
2023-04-13T08:47:19.799Z,16.88
2023-04-13T08:50:05.898Z,14.48
2023-04-13T08:53:00.998Z,16.17
2023-04-13T08:55:47.678Z,24.60
2023-04-13T08:58:38.497Z,14.85
2023-04-13T09:01:27.136Z,15.85
2023-04-13T09:04:20.737Z,25.40
2023-04-13T09:07:16.217Z,14.25
2023-04-13T09:10:08.131Z,13.70
2023-04-13T09:12:53.841Z,18.27
2023-04-13T09:15:39.110Z,13.05
2023-04-13T09:18:56.081Z,14.82
2023-04-13T09:21:45.929Z,22.15
2023-04-13T09:24:40.697Z,11.80
2023-04-13T09:27:26.735Z,19.40
2023-04-13T09:30:13.081Z,16.67
2023-04-13T09:33:05.745Z,14.35
2023-04-13T09:35:52.174Z,16.42
2023-04-13T09:38:37.870Z,17.83
2023-04-13T09:41:36.063Z,20.92
2023-04-13T09:44:27.424Z,15.65
2023-04-13T09:47:12.951Z,20.85
2023-04-13T09:49:57.937Z,15.32
2023-04-13T09:52:43.384Z,13.85
2023-04-13T09:55:29.566Z,19.02
2023-04-13T09:58:17.201Z,25.13
2023-04-13T10:01:02.697Z,20.25
2023-04-13T10:03:52.284Z,22.55
2023-04-13T10:06:39.957Z,14.50
2023-04-13T10:09:26.599Z,20.75
2023-04-13T10:12:13.826Z,14.55
2023-04-13T10:15:26.657Z,21.70
2023-04-13T10:19:00.463Z,17.50
2023-04-13T10:21:48.953Z,11.93
2023-04-13T10:24:34.697Z,15.05
2023-04-13T10:27:21.920Z,17.15
2023-04-13T10:30:17.977Z,16.40
2023-04-13T10:33:05.781Z,17.88
2023-04-13T10:35:59.697Z,21.58
2023-04-13T10:38:46.953Z,19.88
2023-04-13T10:41:32.270Z,14.65
2023-04-13T10:44:17.512Z,15.10
2023-04-13T10:47:06.112Z,17.10
2023-04-13T10:49:52.311Z,18.77
2023-04-13T10:52:38.309Z,16.27
2023-04-13T10:55:25.879Z,19.02
2023-04-13T10:58:17.514Z,21.35
2023-04-13T11:01:03.805Z,22.85
2023-04-13T11:04:03.726Z,20.67
2023-04-13T11:06:53.129Z,16.10
2023-04-13T11:09:39.400Z,16.00
2023-04-13T11:12:25.617Z,21.63
2023-04-13T11:15:22.023Z,21.70
2023-04-13T11:18:08.485Z,27.05
2023-04-13T11:20:54.833Z,17.88
2023-04-13T11:23:40.294Z,17.13
2023-04-13T11:26:38.217Z,18.13
2023-04-13T11:29:24.389Z,22.30
2023-04-13T11:32:19.648Z,13.75
2023-04-13T11:35:06.494Z,15.88
2023-04-13T11:37:54.252Z,20.73
2023-04-13T11:40:44.070Z,18.25
2023-04-13T11:43:30.000Z,12.43
2023-04-13T11:46:23.156Z,22.48
2023-04-13T11:49:09.228Z,20.73
2023-04-13T11:51:55.825Z,18.52
2023-04-13T11:54:45.126Z,17.55
2023-04-13T11:57:32.014Z,8.60
2023-04-13T12:00:24.437Z,14.00
2023-04-13T12:06:08.218Z,12.98
2023-04-13T12:09:09.314Z,10.60
2023-04-13T12:12:20.438Z,12.93
2023-04-13T12:15:19.656Z,13.60
2023-04-13T12:18:15.867Z,15.07
2023-04-13T12:21:03.417Z,12.27
2023-04-13T12:23:56.175Z,19.58
2023-04-13T12:27:17.195Z,21.38
2023-04-13T12:29:49.017Z,14.85
2023-04-13T12:32:43.466Z,14.00
2023-04-13T12:35:29.078Z,20.98
2023-04-13T12:38:14.625Z,21.20
2023-04-13T12:41:01.664Z,14.43
2023-04-13T12:43:47.005Z,17.42
2023-04-13T12:46:32.671Z,15.05
2023-04-13T12:49:18.070Z,12.18
2023-04-13T12:52:03.852Z,13.13
2023-04-13T12:54:53.317Z,19.42
2023-04-13T12:57:40.042Z,11.15
2023-04-13T13:00:25.780Z,15.40
2023-04-13T13:03:14.042Z,12.60
2023-04-13T13:06:00.787Z,13.50
2023-04-13T13:08:46.456Z,16.77
2023-04-13T13:11:32.158Z,14.48
2023-04-13T13:14:20.396Z,16.08
2023-04-13T13:17:08.645Z,13.50
2023-04-13T13:19:54.930Z,19.50
2023-04-13T13:22:40.645Z,19.92
2023-04-13T13:25:26.191Z,15.02
2023-04-13T13:28:14.817Z,14.40
2023-04-13T13:31:01.096Z,16.52
2023-04-13T13:33:50.599Z,13.90
2023-04-13T13:36:39.001Z,13.13
2023-04-13T13:39:25.641Z,14.50
2023-04-13T13:42:11.025Z,14.68
2023-04-13T13:44:56.589Z,12.10
2023-04-13T13:47:42.149Z,13.77
2023-04-13T13:50:28.400Z,18.55
2023-04-13T13:53:15.944Z,15.45
2023-04-13T13:56:03.558Z,13.15
2023-04-13T13:58:49.368Z,13.13
2023-04-13T14:01:34.941Z,12.93
2023-04-13T14:04:20.771Z,10.13
2023-04-13T14:07:06.533Z,15.35
2023-04-13T14:09:52.207Z,14.35
2023-04-13T14:12:46.918Z,8.98
2023-04-13T14:15:34.518Z,11.85
2023-04-13T14:18:20.119Z,21.20
2023-04-13T14:21:05.938Z,8.82
2023-04-13T14:23:51.122Z,12.88
2023-04-13T14:26:41.040Z,12.48
2023-04-13T14:29:27.200Z,12.77
2023-04-13T14:32:18.755Z,13.00
2023-04-13T14:35:04.530Z,10.60
2023-04-13T14:37:49.757Z,10.57
2023-04-13T14:40:35.979Z,15.45
2023-04-13T14:43:21.726Z,11.25
2023-04-13T14:46:18.238Z,10.50
2023-04-13T14:49:03.828Z,14.27
2023-04-13T14:51:49.321Z,13.57
2023-04-13T14:54:35.505Z,11.65
2023-04-13T14:57:21.426Z,15.93
2023-04-13T15:00:09.629Z,13.30
2023-04-13T15:02:55.301Z,12.23
2023-04-13T15:05:48.514Z,10.45
2023-04-13T15:08:34.135Z,13.63
2023-04-13T15:11:19.552Z,12.05
2023-04-13T15:14:05.085Z,12.75
2023-04-13T15:16:50.711Z,11.73
2023-04-13T15:19:36.271Z,10.23
2023-04-13T15:22:21.943Z,13.35
2023-04-13T15:25:07.654Z,12.73
2023-04-13T15:27:54.827Z,9.40
2023-04-13T15:30:42.421Z,16.40
2023-04-13T15:33:27.731Z,8.88
2023-04-13T15:36:16.051Z,9.80
2023-04-13T15:39:01.577Z,15.00
2023-04-13T15:41:47.231Z,11.32
2023-04-13T15:44:35.617Z,9.82
2023-04-13T15:47:22.690Z,10.63
2023-04-13T15:50:08.819Z,13.80
2023-04-13T15:52:54.241Z,11.02
2023-04-13T15:55:40.468Z,10.80
2023-04-13T15:58:26.006Z,10.32
2023-04-13T16:01:12.211Z,13.70
2023-04-13T16:03:57.903Z,11.23
2023-04-13T16:06:43.763Z,10.30
2023-04-13T16:09:30.762Z,10.77
2023-04-13T16:12:17.493Z,18.33
2023-04-13T16:15:03.262Z,7.28
2023-04-13T16:17:49.632Z,11.40
2023-04-13T16:20:35.157Z,9.93
2023-04-13T16:23:21.372Z,13.32
2023-04-13T16:26:06.768Z,10.65
2023-04-13T16:28:53.499Z,10.15
2023-04-13T16:31:44.835Z,12.98
2023-04-13T16:34:30.557Z,14.60
2023-04-13T16:37:16.252Z,16.05
2023-04-13T16:40:02.033Z,11.15
2023-04-13T16:42:49.745Z,12.32
2023-04-13T16:45:36.984Z,14.93
2023-04-13T16:48:23.707Z,12.23
2023-04-13T16:51:09.111Z,14.90
2023-04-13T16:53:54.787Z,15.30
2023-04-13T16:56:40.059Z,10.85
2023-04-13T16:59:26.638Z,14.40
2023-04-13T17:02:28.178Z,10.63
2023-04-13T17:05:16.336Z,11.85
2023-04-13T17:08:03.413Z,9.43
2023-04-13T17:10:48.943Z,18.25
2023-04-13T17:13:36.513Z,13.02
2023-04-13T17:16:22.756Z,9.55
2023-04-13T17:19:08.068Z,12.00
2023-04-13T17:21:53.889Z,13.15
2023-04-13T17:24:38.997Z,14.38
2023-04-13T17:27:24.504Z,15.93
2023-04-13T17:30:13.564Z,16.23
2023-04-13T17:32:58.759Z,11.15
2023-04-13T17:35:44.387Z,17.30
2023-04-13T17:38:29.811Z,16.92
2023-04-13T17:41:15.450Z,11.05
2023-04-13T17:44:04.348Z,19.65
2023-04-13T17:46:50.911Z,15.43
2023-04-13T17:49:37.345Z,13.20
2023-04-13T17:52:22.614Z,15.80
2023-04-13T17:55:08.544Z,17.17
2023-04-13T17:57:54.027Z,13.18
2023-04-13T18:00:39.389Z,16.05
2023-04-13T18:03:24.939Z,26.08
2023-04-13T18:06:10.940Z,24.50
2023-04-13T18:08:57.092Z,22.90
2023-04-13T18:11:42.784Z,25.08
2023-04-13T18:14:28.486Z,10.73
2023-04-13T18:17:13.746Z,18.65
2023-04-13T18:19:59.886Z,17.30
2023-04-13T18:22:45.407Z,12.20
2023-04-13T18:25:31.041Z,17.17
2023-04-13T18:28:19.574Z,22.70
2023-04-13T18:31:09.297Z,19.98
2023-04-13T18:33:54.522Z,28.58
2023-04-13T18:36:40.633Z,13.70
2023-04-13T18:39:26.161Z,16.42
2023-04-13T18:42:11.756Z,17.48
2023-04-13T18:44:57.382Z,16.25
2023-04-13T18:47:42.976Z,14.45
2023-04-13T18:50:29.282Z,18.30
2023-04-13T18:53:18.067Z,21.40
2023-04-13T18:56:06.660Z,17.75
2023-04-13T18:58:52.382Z,22.00
2023-04-13T19:01:38.142Z,25.05
2023-04-13T19:04:24.188Z,14.40
2023-04-13T19:07:09.715Z,19.60
2023-04-13T19:09:55.325Z,22.90
2023-04-13T19:12:43.984Z,17.98
2023-04-13T19:15:30.807Z,22.40
2023-04-13T19:18:15.985Z,15.75
2023-04-13T19:21:01.435Z,18.45
2023-04-13T19:23:46.909Z,20.90
2023-04-13T19:26:32.225Z,17.38
2023-04-13T19:29:18.138Z,26.95
2023-04-13T19:32:03.498Z,15.55
2023-04-13T19:34:49.071Z,15.05
2023-04-13T19:37:38.526Z,19.85
2023-04-13T19:40:24.198Z,17.80
2023-04-13T19:43:09.856Z,18.50
2023-04-13T19:46:01.622Z,19.92
2023-04-13T19:48:48.167Z,15.85
2023-04-13T19:51:33.782Z,14.00
2023-04-13T19:54:19.605Z,12.13
2023-04-13T19:57:05.671Z,17.05
2023-04-13T19:59:51.491Z,17.48
2023-04-13T20:02:37.034Z,10.23
2023-04-13T20:05:22.463Z,14.30
2023-04-13T20:08:07.706Z,17.88
2023-04-13T20:10:53.649Z,15.50
2023-04-13T20:13:40.457Z,14.85
2023-04-13T20:16:26.493Z,9.15
2023-04-13T20:19:12.154Z,9.75
2023-04-13T20:21:57.734Z,13.70
2023-04-13T20:24:43.158Z,6.35
2023-04-13T20:27:29.693Z,9.63
2023-04-13T20:30:15.161Z,19.55
2023-04-13T20:33:03.826Z,9.38
2023-04-13T20:35:52.876Z,8.32
2023-04-13T20:38:38.812Z,14.88
2023-04-13T20:41:24.530Z,9.52
2023-04-13T20:44:10.614Z,10.45
2023-04-13T20:46:56.378Z,17.52
2023-04-13T20:49:46.481Z,8.68
2023-04-13T20:52:32.175Z,16.80
2023-04-13T20:55:19.191Z,10.27
2023-04-13T20:58:04.877Z,11.63
2023-04-13T21:00:50.256Z,11.73
2023-04-13T21:03:35.760Z,11.55
2023-04-13T21:06:22.843Z,17.52
2023-04-13T21:09:08.824Z,14.13
2023-04-13T21:11:54.290Z,7.50
2023-04-13T21:14:42.741Z,8.40
2023-04-13T21:17:30.336Z,11.43
2023-04-13T21:20:15.630Z,12.65
2023-04-13T21:23:01.377Z,14.68
2023-04-13T21:25:47.810Z,21.67
2023-04-13T21:28:33.113Z,11.32
2023-04-13T21:31:18.714Z,16.73
2023-04-13T21:34:04.085Z,17.30
2023-04-13T21:36:51.648Z,11.13
2023-04-13T21:39:37.352Z,13.88
2023-04-13T21:42:22.994Z,13.30
2023-04-13T21:45:09.120Z,15.90
2023-04-13T21:47:54.803Z,14.55
2023-04-13T21:50:40.449Z,15.70
2023-04-13T21:53:25.788Z,9.07
2023-04-13T21:56:12.065Z,13.07
2023-04-13T21:59:00.935Z,16.25
2023-04-13T22:01:46.987Z,14.63
2023-04-13T22:04:32.529Z,10.20
2023-04-13T22:07:20.475Z,15.43
2023-04-13T22:10:11.973Z,11.50
2023-04-13T22:12:57.390Z,20.10
2023-04-13T22:15:43.452Z,14.60
2023-04-13T22:18:28.710Z,18.08
2023-04-13T22:21:14.221Z,17.63
2023-04-13T22:23:59.791Z,21.05
2023-04-13T22:26:46.253Z,23.02
2023-04-13T22:29:37.937Z,12.02
2023-04-13T22:32:29.629Z,18.63
2023-04-13T22:35:15.031Z,12.88
2023-04-13T22:38:02.073Z,15.90
2023-04-13T22:40:47.512Z,17.00
2023-04-13T22:43:33.022Z,17.85
2023-04-13T22:46:19.045Z,19.02
2023-04-13T22:49:05.724Z,21.58
2023-04-13T22:51:51.068Z,22.05
2023-04-13T22:54:36.921Z,16.33
2023-04-13T22:57:22.409Z,23.77
2023-04-13T23:00:08.575Z,16.38
2023-04-13T23:02:56.293Z,19.90
2023-04-13T23:05:44.544Z,13.35
2023-04-13T23:08:36.252Z,16.92
2023-04-13T23:11:21.815Z,16.08
2023-04-13T23:14:07.474Z,13.60
2023-04-13T23:16:52.737Z,15.63
2023-04-13T23:19:38.159Z,18.42
2023-04-13T23:22:24.368Z,13.20
2023-04-13T23:25:09.907Z,13.68
2023-04-13T23:27:58.716Z,12.40
2023-04-13T23:30:44.600Z,15.25
2023-04-13T23:33:30.526Z,13.07
2023-04-13T23:36:16.499Z,16.20
2023-04-13T23:39:01.993Z,13.13
2023-04-13T23:41:51.002Z,19.55
2023-04-13T23:44:36.370Z,19.60
2023-04-13T23:47:22.481Z,22.40
2023-04-13T23:50:08.688Z,17.52
2023-04-13T23:52:54.562Z,15.90
2023-04-13T23:55:40.920Z,21.23
2023-04-13T23:58:26.041Z,20.73
